createdAt,value
2023-11-24T00:00:12.781Z,98.16
2023-11-24T00:03:01.261Z,98.20
2023-11-24T00:05:29.805Z,98.03
2023-11-24T00:07:58.492Z,97.93
2023-11-24T00:10:30.002Z,97.72
2023-11-24T00:12:58.571Z,97.59
2023-11-24T00:15:28.792Z,97.57
2023-11-24T00:17:58.279Z,97.48
2023-11-24T00:20:27.344Z,97.51
2023-11-24T00:22:57.154Z,97.55
2023-11-24T00:25:25.549Z,97.71
2023-11-24T00:27:56.105Z,97.89
2023-11-24T00:30:24.575Z,97.72
2023-11-24T00:32:53.025Z,97.70
2023-11-24T00:35:22.509Z,97.68
2023-11-24T00:37:51.024Z,97.58
2023-11-24T00:40:19.823Z,97.72
2023-11-24T00:42:48.101Z,97.63
2023-11-24T00:45:17.896Z,97.40
2023-11-24T00:47:46.488Z,97.35
2023-11-24T00:50:15.573Z,97.35
2023-11-24T00:52:44.300Z,97.13
2023-11-24T00:55:12.661Z,97.05
2023-11-24T00:57:40.925Z,97.23
2023-11-24T01:00:10.242Z,97.20
2023-11-24T01:02:40.070Z,97.16
2023-11-24T01:05:10.960Z,97.03
2023-11-24T01:07:39.487Z,96.82
2023-11-24T01:10:10.497Z,96.64
2023-11-24T01:12:40.151Z,96.59
2023-11-24T01:15:10.225Z,96.61
2023-11-24T01:17:38.469Z,96.37
2023-11-24T01:20:11.240Z,96.29
2023-11-24T01:22:40.111Z,96.10
2023-11-24T01:25:09.447Z,95.97
2023-11-24T01:27:37.803Z,95.90
2023-11-24T01:30:09.059Z,96.00
2023-11-24T01:32:37.921Z,95.98
2023-11-24T01:35:07.081Z,95.80
2023-11-24T01:37:35.348Z,95.65
2023-11-24T01:40:07.332Z,95.60
2023-11-24T01:42:38.836Z,95.48
2023-11-24T01:45:11.531Z,95.20
2023-11-24T01:47:40.432Z,95.14
2023-11-24T01:50:11.396Z,95.35
2023-11-24T01:52:41.090Z,95.42
2023-11-24T01:55:14.417Z,95.64
2023-11-24T01:57:43.879Z,95.49
2023-11-24T02:00:14.904Z,95.61
2023-11-24T02:02:44.127Z,95.85
2023-11-24T02:05:13.557Z,96.02
2023-11-24T02:07:45.701Z,95.63
2023-11-24T02:10:16.153Z,95.53
2023-11-24T02:12:44.547Z,95.27
2023-11-24T02:15:13.813Z,94.95
2023-11-24T02:17:42.432Z,95.05
2023-11-24T02:20:16.674Z,95.45
2023-11-24T02:22:45.386Z,95.20
2023-11-24T02:25:14.930Z,95.16
2023-11-24T02:27:43.372Z,95.23
2023-11-24T02:30:13.068Z,95.37
2023-11-24T02:32:41.520Z,95.23
2023-11-24T02:35:11.096Z,95.37
2023-11-24T02:37:40.169Z,95.27
2023-11-24T02:40:09.911Z,94.97
2023-11-24T02:42:38.184Z,94.82
2023-11-24T02:45:07.667Z,94.79
2023-11-24T02:47:36.543Z,94.71
2023-11-24T02:50:05.857Z,94.71
2023-11-24T02:52:34.334Z,94.38
2023-11-24T02:55:03.402Z,94.69
2023-11-24T02:57:32.132Z,94.83
2023-11-24T03:00:00.705Z,94.88
2023-11-24T03:02:29.738Z,95.01
2023-11-24T03:04:58.422Z,95.08
2023-11-24T03:07:28.012Z,95.35
2023-11-24T03:09:56.497Z,94.95
2023-11-24T03:12:24.883Z,94.86
2023-11-24T03:14:55.303Z,95.00
2023-11-24T03:17:23.970Z,95.11
2023-11-24T03:19:52.342Z,94.97
2023-11-24T03:22:21.644Z,95.08
2023-11-24T03:24:50.180Z,95.13
2023-11-24T03:27:18.395Z,95.19
2023-11-24T03:29:46.727Z,95.03
2023-11-24T03:32:15.874Z,94.98
2023-11-24T03:34:44.186Z,94.84
2023-11-24T03:37:12.836Z,94.88
2023-11-24T03:39:41.327Z,94.93
2023-11-24T03:42:09.808Z,94.82
2023-11-24T03:44:39.818Z,94.72
2023-11-24T03:47:08.192Z,94.63
2023-11-24T03:49:37.189Z,94.68
2023-11-24T03:52:06.116Z,94.96
2023-11-24T03:54:35.196Z,95.10
2023-11-24T03:57:04.099Z,95.17
2023-11-24T03:59:32.346Z,95.22
2023-11-24T04:02:00.624Z,95.37
2023-11-24T04:04:30.320Z,95.55
2023-11-24T04:06:59.343Z,95.77
2023-11-24T04:09:27.843Z,96.08
2023-11-24T04:11:56.388Z,95.99
2023-11-24T04:14:24.786Z,95.64
2023-11-24T04:16:53.093Z,95.77
2023-11-24T04:19:22.079Z,95.79
2023-11-24T04:21:50.438Z,96.14
2023-11-24T04:24:19.409Z,96.28
2023-11-24T04:26:47.689Z,96.35
2023-11-24T04:29:17.220Z,96.45
2023-11-24T04:31:45.878Z,96.62
2023-11-24T04:34:14.346Z,96.75
2023-11-24T04:36:42.558Z,96.84
2023-11-24T04:39:11.021Z,96.86
2023-11-24T04:41:39.294Z,96.93
2023-11-24T04:44:07.570Z,96.92
2023-11-24T04:46:35.917Z,96.93
2023-11-24T04:49:05.246Z,97.15
2023-11-24T04:51:33.658Z,97.45
2023-11-24T04:54:05.002Z,97.26
2023-11-24T04:56:33.351Z,97.19
2023-11-24T04:59:02.139Z,97.39
2023-11-24T05:01:30.894Z,97.43
2023-11-24T05:04:01.040Z,97.57
2023-11-24T05:06:29.575Z,97.55
2023-11-24T05:08:58.023Z,97.30
2023-11-24T05:11:27.520Z,97.56
2023-11-24T05:13:56.093Z,97.44
2023-11-24T05:16:24.534Z,97.32
2023-11-24T05:18:53.900Z,97.23
2023-11-24T05:21:22.265Z,97.14
2023-11-24T05:23:50.813Z,96.71
2023-11-24T05:26:19.122Z,96.48
2023-11-24T05:28:47.404Z,96.18
2023-11-24T05:31:15.969Z,95.96
2023-11-24T05:33:44.524Z,95.89
2023-11-24T05:36:12.843Z,95.73
2023-11-24T05:38:41.118Z,95.48
2023-11-24T05:41:09.914Z,95.44
2023-11-24T05:43:40.121Z,95.34
2023-11-24T05:46:08.673Z,95.06
2023-11-24T05:48:37.427Z,94.90
2023-11-24T05:51:06.705Z,94.97
2023-11-24T05:53:36.301Z,95.00
2023-11-24T05:56:09.540Z,94.88
2023-11-24T05:58:37.881Z,94.84
2023-11-24T06:01:06.290Z,94.99
2023-11-24T06:03:34.696Z,94.98
2023-11-24T06:06:03.238Z,94.75
2023-11-24T06:08:32.717Z,94.55
2023-11-24T06:11:01.116Z,94.36
2023-11-24T06:13:29.582Z,94.16
2023-11-24T06:15:58.339Z,94.18
2023-11-24T06:18:29.870Z,93.73
2023-11-24T06:20:58.198Z,92.15
2023-11-24T06:23:26.483Z,88.60
2023-11-24T06:25:54.858Z,84.35
2023-11-24T06:28:23.334Z,81.80
2023-11-24T06:30:51.714Z,79.81
2023-11-24T06:33:20.221Z,77.75
2023-11-24T06:35:48.492Z,76.83
2023-11-24T06:38:16.817Z,74.27
2023-11-24T06:40:45.430Z,72.64
2023-11-24T06:43:38.580Z,70.51
2023-11-24T06:46:07.104Z,68.98
2023-11-24T06:48:39.525Z,68.44
2023-11-24T06:51:08.760Z,66.54
2023-11-24T06:53:37.239Z,65.17
2023-11-24T06:56:06.014Z,65.23
2023-11-24T07:09:28.834Z,65.25
2023-11-24T07:11:57.113Z,67.20
2023-11-24T07:14:25.395Z,69.53
2023-11-24T07:16:54.103Z,71.40
2023-11-24T07:19:23.352Z,72.86
2023-11-24T07:21:51.837Z,74.68
2023-11-24T07:24:20.240Z,76.03
2023-11-24T07:26:48.917Z,77.34
2023-11-24T07:29:17.603Z,78.55
2023-11-24T07:31:46.693Z,79.46
2023-11-24T07:34:15.147Z,80.03
2023-11-24T07:36:44.117Z,80.81
2023-11-24T07:39:12.638Z,81.41
2023-11-24T07:41:41.240Z,81.61
2023-11-24T07:44:10.274Z,81.71
2023-11-24T07:47:07.076Z,82.05
2023-11-24T07:49:35.638Z,82.45
2023-11-24T07:52:06.356Z,82.61
2023-11-24T07:54:34.907Z,82.17
2023-11-24T07:57:03.565Z,82.24
2023-11-24T07:59:32.140Z,82.16
2023-11-24T08:02:00.482Z,81.90
2023-11-24T08:04:29.588Z,81.30
2023-11-24T08:06:58.187Z,81.13
2023-11-24T08:09:27.026Z,81.52
2023-11-24T08:11:56.601Z,81.11
2023-11-24T08:14:25.512Z,80.84
2023-11-24T08:16:54.330Z,80.68
2023-11-24T08:19:27.129Z,81.30
2023-11-24T08:21:55.569Z,81.00
2023-11-24T08:24:23.918Z,80.78
2023-11-24T08:26:52.788Z,80.66
2023-11-24T08:29:21.598Z,80.42
2023-11-24T08:31:51.310Z,80.16
2023-11-24T08:34:20.690Z,80.16
2023-11-24T08:36:49.092Z,80.15
2023-11-24T08:39:19.312Z,80.18
2023-11-24T08:41:50.865Z,79.96
2023-11-24T08:44:27.851Z,79.81
2023-11-24T08:46:56.471Z,79.56
2023-11-24T08:49:24.634Z,79.97
2023-11-24T08:51:53.345Z,79.78
2023-11-24T08:54:23.855Z,78.98
2023-11-24T08:56:52.213Z,78.69
2023-11-24T08:59:20.794Z,79.02
2023-11-24T09:01:50.931Z,78.83
2023-11-24T09:04:20.795Z,79.14
2023-11-24T09:06:49.734Z,79.30
2023-11-24T09:09:18.285Z,78.45
2023-11-24T09:11:48.244Z,78.45
2023-11-24T09:14:16.712Z,78.25
2023-11-24T09:16:45.173Z,77.63
2023-11-24T09:19:13.831Z,76.91
2023-11-24T09:21:42.462Z,76.58
2023-11-24T09:24:13.290Z,75.72
2023-11-24T09:26:44.569Z,76.17
2023-11-24T09:29:13.338Z,76.46
2023-11-24T09:31:43.430Z,76.27
2023-11-24T09:34:11.967Z,76.61
2023-11-24T09:36:43.781Z,76.79
2023-11-24T09:39:12.655Z,76.32
2023-11-24T09:41:41.696Z,76.54
2023-11-24T09:44:11.688Z,77.17
2023-11-24T09:46:49.262Z,76.74
2023-11-24T09:49:22.145Z,76.33
2023-11-24T09:51:50.343Z,76.44
2023-11-24T09:54:19.484Z,77.07
2023-11-24T09:56:47.968Z,77.18
2023-11-24T09:59:16.892Z,76.81
2023-11-24T10:01:48.956Z,76.59
2023-11-24T10:04:17.241Z,76.01
2023-11-24T10:06:46.733Z,75.69
2023-11-24T10:09:23.718Z,75.95
2023-11-24T10:11:52.294Z,75.93
2023-11-24T10:14:23.278Z,75.92
2023-11-24T10:16:51.759Z,75.85
2023-11-24T10:19:23.459Z,75.73
2023-11-24T10:21:56.395Z,75.80
2023-11-24T10:24:26.766Z,75.70
2023-11-24T10:26:55.370Z,75.53
2023-11-24T10:29:29.585Z,76.05
2023-11-24T10:31:58.169Z,75.96
2023-11-24T10:34:27.657Z,76.01
2023-11-24T10:36:56.420Z,76.02
2023-11-24T10:39:26.909Z,75.57
2023-11-24T10:41:56.188Z,75.36
2023-11-24T10:44:26.412Z,75.35
2023-11-24T10:47:01.848Z,74.96
2023-11-24T10:49:41.531Z,75.06
2023-11-24T10:52:33.946Z,75.52
2023-11-24T10:55:10.148Z,75.82
2023-11-24T10:57:40.865Z,76.75
2023-11-24T11:00:10.181Z,77.27
2023-11-24T11:02:41.840Z,77.43
2023-11-24T11:05:28.098Z,77.66
2023-11-24T11:08:29.507Z,78.61
2023-11-24T11:11:14.032Z,78.45
2023-11-24T11:13:44.620Z,78.56
2023-11-24T11:16:16.754Z,78.55
2023-11-24T11:18:45.353Z,79.03
2023-11-24T11:21:33.036Z,79.17
2023-11-24T11:24:11.842Z,77.61
2023-11-24T11:26:50.292Z,77.84
2023-11-24T11:29:25.732Z,77.98
2023-11-24T11:31:57.230Z,78.52
2023-11-24T11:34:31.583Z,77.24
2023-11-24T11:37:21.404Z,76.18
2023-11-24T11:39:59.459Z,76.55
2023-11-24T11:42:51.540Z,76.29
2023-11-24T11:45:26.184Z,76.02
2023-11-24T11:47:54.633Z,76.15
2023-11-24T11:50:25.938Z,76.81
2023-11-24T11:52:59.231Z,76.64
2023-11-24T11:55:30.509Z,76.92
2023-11-24T11:58:01.916Z,77.50
2023-11-24T12:00:31.569Z,77.50
2023-11-24T12:03:00.424Z,77.61
2023-11-24T12:05:29.025Z,77.78
2023-11-24T12:07:59.904Z,78.01
2023-11-24T12:10:31.461Z,78.02
2023-11-24T12:13:06.061Z,78.43
2023-11-24T12:15:35.908Z,78.44
2023-11-24T12:18:06.860Z,78.42
2023-11-24T12:20:38.024Z,78.73
2023-11-24T12:23:09.280Z,79.21
2023-11-24T12:25:40.912Z,79.25
2023-11-24T12:28:11.649Z,79.53
2023-11-24T12:30:44.486Z,79.87
2023-11-24T12:33:13.184Z,79.71
2023-11-24T12:35:56.362Z,80.18
2023-11-24T12:38:25.258Z,79.98
2023-11-24T12:40:53.849Z,80.16
2023-11-24T12:43:25.528Z,80.33
2023-11-24T12:45:54.119Z,80.26
2023-11-24T12:48:26.766Z,80.09
2023-11-24T12:50:59.790Z,80.27
2023-11-24T12:53:30.174Z,80.12
2023-11-24T12:55:59.091Z,79.77
2023-11-24T12:58:27.706Z,79.82
2023-11-24T13:00:58.549Z,79.82
2023-11-24T13:03:27.990Z,79.93
2023-11-24T13:05:56.479Z,80.12
2023-11-24T13:08:24.957Z,80.30
2023-11-24T13:10:55.067Z,80.61
2023-11-24T13:13:23.549Z,80.63
2023-11-24T13:15:53.663Z,80.67
2023-11-24T13:18:22.660Z,81.01
2023-11-24T13:20:51.559Z,81.36
2023-11-24T13:23:20.144Z,81.70
2023-11-24T13:25:48.723Z,82.14
2023-11-24T13:28:17.256Z,82.55
2023-11-24T13:30:46.156Z,82.68
2023-11-24T13:33:16.496Z,82.82
2023-11-24T13:35:45.930Z,82.90
2023-11-24T13:38:15.948Z,82.99
2023-11-24T13:40:47.092Z,83.12
2023-11-24T13:43:15.687Z,83.42
2023-11-24T13:45:44.158Z,83.88
2023-11-24T13:48:13.982Z,84.33
2023-11-24T13:50:42.445Z,84.62
2023-11-24T13:53:13.372Z,84.94
2023-11-24T13:55:45.132Z,85.16
2023-11-24T13:58:14.484Z,85.39
2023-11-24T14:00:43.281Z,85.39
2023-11-24T14:03:11.756Z,85.12
2023-11-24T14:05:41.221Z,84.99
2023-11-24T14:08:10.845Z,84.91
2023-11-24T14:10:39.314Z,84.90
2023-11-24T14:13:07.688Z,85.10
2023-11-24T14:15:36.170Z,85.19
2023-11-24T14:18:08.242Z,85.31
2023-11-24T14:20:38.048Z,85.49
2023-11-24T14:23:06.221Z,85.63
2023-11-24T14:25:35.522Z,85.78
2023-11-24T14:28:05.254Z,85.98
2023-11-24T14:30:35.862Z,86.27
2023-11-24T14:33:04.670Z,86.63
2023-11-24T14:35:33.339Z,86.88
2023-11-24T14:38:02.858Z,86.93
2023-11-24T14:40:31.180Z,86.83
2023-11-24T14:43:00.037Z,86.95
2023-11-24T14:45:28.283Z,86.97
2023-11-24T14:47:56.577Z,87.01
2023-11-24T14:50:27.910Z,86.98
2023-11-24T14:52:56.501Z,86.73
2023-11-24T14:55:25.015Z,86.67
2023-11-24T14:57:53.481Z,86.85
2023-11-24T15:00:32.256Z,86.84
2023-11-24T15:03:16.022Z,86.89
2023-11-24T15:05:53.643Z,86.50
2023-11-24T15:08:22.105Z,86.41
2023-11-24T15:10:50.884Z,86.78
2023-11-24T15:13:26.092Z,87.16
2023-11-24T15:15:54.518Z,87.06
2023-11-24T15:18:22.884Z,87.72
2023-11-24T15:20:54.995Z,88.47
2023-11-24T15:23:26.823Z,89.29
2023-11-24T15:25:55.874Z,89.09
2023-11-24T15:28:25.229Z,89.20
2023-11-24T15:30:55.096Z,89.13
2023-11-24T15:33:24.185Z,88.75
2023-11-24T15:35:53.572Z,89.32
2023-11-24T15:38:23.339Z,89.41
2023-11-24T15:40:52.955Z,89.62
2023-11-24T15:43:22.839Z,89.34
2023-11-24T15:45:56.847Z,89.35
2023-11-24T15:48:27.296Z,89.76
2023-11-24T15:50:59.357Z,89.28
2023-11-24T15:53:28.673Z,89.66
2023-11-24T15:55:59.384Z,89.75
2023-11-24T15:58:28.499Z,89.23
2023-11-24T16:00:58.494Z,88.63
2023-11-24T16:03:27.348Z,89.09
2023-11-24T16:06:01.317Z,89.71
2023-11-24T16:08:34.577Z,89.96
2023-11-24T16:11:11.394Z,89.94
2023-11-24T16:13:45.971Z,89.89
2023-11-24T16:16:15.705Z,90.11
2023-11-24T16:18:45.903Z,90.47
2023-11-24T16:21:14.784Z,89.73
2023-11-24T16:23:43.407Z,90.06
2023-11-24T16:26:11.892Z,90.44
2023-11-24T16:28:41.499Z,90.57
2023-11-24T16:31:10.313Z,90.37
2023-11-24T16:33:40.192Z,90.14
2023-11-24T16:36:11.078Z,89.87
2023-11-24T16:38:43.113Z,89.42
2023-11-24T16:41:16.034Z,89.15
2023-11-24T16:43:44.389Z,88.91
2023-11-24T16:46:12.881Z,88.70
2023-11-24T16:48:41.885Z,88.63
2023-11-24T16:51:10.726Z,88.50
2023-11-24T16:53:42.275Z,88.31
2023-11-24T16:56:10.960Z,88.24
2023-11-24T16:58:39.342Z,88.36
2023-11-24T17:01:07.955Z,88.36
2023-11-24T17:03:38.899Z,88.51
2023-11-24T17:06:09.003Z,88.44
2023-11-24T17:08:40.746Z,88.69
2023-11-24T17:11:12.365Z,88.81
2023-11-24T17:13:40.996Z,88.94
2023-11-24T17:16:11.398Z,88.94
2023-11-24T17:18:40.207Z,88.90
2023-11-24T17:21:09.684Z,88.81
2023-11-24T17:23:42.392Z,88.73
2023-11-24T17:26:11.549Z,88.86
2023-11-24T17:28:40.295Z,88.75
2023-11-24T17:31:09.600Z,88.66
2023-11-24T17:33:39.303Z,88.72
2023-11-24T17:36:09.594Z,88.61
2023-11-24T17:38:38.191Z,88.65
2023-11-24T17:41:07.424Z,88.72
2023-11-24T17:43:35.784Z,88.96
2023-11-24T17:46:07.741Z,88.96
2023-11-24T17:48:37.136Z,89.05
2023-11-24T17:51:06.773Z,88.98
2023-11-24T17:53:37.035Z,88.92
2023-11-24T17:56:06.160Z,88.89
2023-11-24T17:58:35.093Z,89.11
2023-11-24T18:01:03.596Z,89.24
2023-11-24T18:03:34.088Z,89.36
2023-11-24T18:06:03.599Z,89.15
2023-11-24T18:08:35.385Z,89.14
2023-11-24T18:11:06.277Z,89.31
2023-11-24T18:13:34.813Z,89.21
2023-11-24T18:16:04.685Z,89.34
2023-11-24T18:18:33.656Z,89.40
2023-11-24T18:21:02.456Z,89.43
2023-11-24T18:23:32.516Z,89.32
2023-11-24T18:26:01.348Z,89.06
2023-11-24T18:28:30.118Z,89.38
2023-11-24T18:30:59.186Z,89.01
2023-11-24T18:33:27.924Z,89.15
2023-11-24T18:35:56.726Z,89.34
2023-11-24T18:38:26.497Z,89.38
2023-11-24T18:40:58.823Z,89.31
2023-11-24T18:43:36.733Z,89.98
2023-11-24T18:46:09.101Z,90.05
2023-11-24T18:48:38.083Z,89.53
2023-11-24T18:51:07.593Z,89.64
2023-11-24T18:53:35.936Z,89.96
2023-11-24T18:56:05.357Z,90.02
2023-11-24T18:58:34.151Z,90.08
2023-11-24T19:01:02.572Z,89.70
2023-11-24T19:03:32.660Z,89.38
2023-11-24T19:06:01.114Z,88.88
2023-11-24T19:08:29.903Z,88.20
2023-11-24T19:10:59.312Z,87.94
2023-11-24T19:13:27.902Z,87.79
2023-11-24T19:15:57.002Z,88.05
2023-11-24T19:18:25.566Z,88.16
2023-11-24T19:20:57.139Z,88.01
2023-11-24T19:23:26.118Z,87.89
2023-11-24T19:25:54.392Z,87.77
2023-11-24T19:28:22.817Z,87.77
2023-11-24T19:30:53.723Z,87.36
2023-11-24T19:33:22.499Z,87.34
2023-11-24T19:35:50.773Z,87.38
2023-11-24T19:38:19.262Z,87.46
2023-11-24T19:40:47.735Z,87.59
2023-11-24T19:43:16.857Z,87.77
2023-11-24T19:45:46.070Z,87.64
2023-11-24T19:48:15.741Z,87.87
2023-11-24T19:50:44.015Z,88.06
2023-11-24T19:53:13.631Z,88.21
2023-11-24T19:55:41.905Z,88.26
2023-11-24T19:58:10.810Z,88.39
2023-11-24T20:00:40.044Z,88.80
2023-11-24T20:03:08.506Z,89.04
2023-11-24T20:05:37.190Z,88.89
2023-11-24T20:08:06.267Z,88.66
2023-11-24T20:10:34.685Z,89.00
2023-11-24T20:13:04.937Z,89.52
2023-11-24T20:15:33.745Z,89.34
2023-11-24T20:18:03.937Z,89.52
2023-11-24T20:20:32.451Z,90.17
2023-11-24T20:23:00.732Z,91.26
2023-11-24T20:25:32.338Z,92.02
2023-11-24T20:28:01.775Z,93.01
2023-11-24T20:30:30.367Z,94.31
2023-11-24T20:32:58.672Z,95.03
2023-11-24T20:35:27.435Z,95.16
2023-11-24T20:37:55.711Z,95.65
2023-11-24T20:40:26.124Z,95.64
2023-11-24T20:42:54.644Z,96.04
2023-11-24T20:45:23.014Z,96.03
2023-11-24T20:47:51.503Z,96.45
2023-11-24T20:50:20.218Z,97.11
2023-11-24T20:52:49.979Z,97.57
2023-11-24T20:55:18.843Z,97.11
2023-11-24T20:57:48.098Z,96.64
2023-11-24T21:00:19.828Z,96.86
2023-11-24T21:02:49.412Z,97.75
2023-11-24T21:05:18.113Z,97.88
2023-11-24T21:07:46.408Z,98.15
2023-11-24T21:10:15.728Z,98.22
2023-11-24T21:12:44.384Z,98.34
2023-11-24T21:15:15.958Z,98.70
2023-11-24T21:17:44.787Z,98.85
2023-11-24T21:20:15.405Z,98.71
2023-11-24T21:22:43.712Z,98.81
2023-11-24T21:25:13.353Z,99.22
2023-11-24T21:27:41.818Z,99.08
2023-11-24T21:30:10.818Z,98.67
2023-11-24T21:32:39.364Z,98.80
2023-11-24T21:35:09.008Z,98.80
2023-11-24T21:37:37.395Z,98.88
2023-11-24T21:40:08.070Z,98.71
2023-11-24T21:42:36.914Z,98.73
2023-11-24T21:45:06.094Z,98.66
2023-11-24T21:47:34.844Z,98.63
2023-11-24T21:50:04.778Z,98.75
2023-11-24T21:52:34.220Z,98.56
2023-11-24T21:55:05.449Z,99.13
2023-11-24T21:57:34.553Z,99.45
2023-11-24T22:00:06.410Z,99.84
2023-11-24T22:02:40.850Z,99.99
2023-11-24T22:05:12.693Z,100.00
2023-11-24T22:07:42.335Z,100.00
2023-11-24T22:10:11.139Z,100.00
2023-11-24T22:12:39.690Z,100.00
2023-11-24T22:15:09.495Z,99.91
2023-11-24T22:17:38.316Z,99.54
2023-11-24T22:20:12.096Z,99.32
2023-11-24T22:22:41.179Z,99.93
2023-11-24T22:25:10.268Z,100.00
2023-11-24T22:27:38.672Z,100.00
2023-11-24T22:30:08.205Z,100.00
2023-11-24T22:32:37.057Z,100.00
2023-11-24T22:35:08.167Z,100.00
2023-11-24T22:37:36.621Z,100.00
2023-11-24T22:40:08.375Z,100.00
2023-11-24T22:42:36.911Z,100.00
2023-11-24T22:45:07.745Z,100.00
2023-11-24T22:47:39.566Z,100.00
2023-11-24T22:50:08.562Z,100.00
2023-11-24T22:52:37.711Z,100.00
2023-11-24T22:55:07.115Z,100.00
2023-11-24T22:57:35.787Z,100.00
2023-11-24T23:00:07.352Z,100.00
2023-11-24T23:02:36.009Z,100.00
2023-11-24T23:05:05.901Z,100.00
2023-11-24T23:07:34.339Z,100.00
2023-11-24T23:10:05.795Z,100.00
2023-11-24T23:12:34.459Z,100.00
2023-11-24T23:15:02.733Z,100.00
2023-11-24T23:17:31.015Z,100.00
2023-11-24T23:19:59.491Z,100.00
2023-11-24T23:22:34.965Z,100.00
2023-11-24T23:25:07.824Z,100.00
2023-11-24T23:27:37.018Z,100.00
2023-11-24T23:30:08.662Z,100.00
2023-11-24T23:32:37.231Z,100.00
2023-11-24T23:35:08.842Z,100.00
2023-11-24T23:37:37.255Z,100.00
2023-11-24T23:40:15.274Z,100.00
2023-11-24T23:42:45.933Z,100.00
2023-11-24T23:45:15.517Z,100.00
2023-11-24T23:47:44.290Z,100.00
2023-11-24T23:50:14.115Z,100.00
2023-11-24T23:52:43.542Z,100.00
2023-11-24T23:55:14.427Z,100.00
2023-11-24T23:57:43.267Z,100.00
